WetterOnline ( http://www.wetteronline.at )

Wetter aktuell Andernach

Aktuelles Wetter: Andernach (75m)

6-stündlich | Neueste Meldungen
Ortszeit Temperatur Wetter
Di, 22.01. 1:00 -8.7° C bewölkt
Mo, 21.01. 19:00 -5.3° C wolkenlos
Mo, 21.01. 13:00 -5.6° C bedeckt
Mo, 21.01. 7:00 -8.9° C wolkig
Mo, 21.01. 1:00 -7.5° C wolkenlos
So, 20.01. 19:00 -3.1° C wolkenlos
So, 20.01. 13:00 -0.3° C fast wolkenlos
So, 20.01. 7:00 -8.1° C wolkenlos
Ortszeit Temperatur Wetter
Di, 22.01. 2:10 -8.6° C wolkig
Di, 22.01. 2:00 -8.8° C leicht bewölkt
Di, 22.01. 1:50 -8.8° C fast wolkenlos
Di, 22.01. 1:40 -8.8° C fast wolkenlos
Di, 22.01. 1:30 -8.7° C leicht bewölkt
Di, 22.01. 1:20 -8.7° C leicht bewölkt
Di, 22.01. 1:00 -8.7° C bewölkt
Di, 22.01. 0:30 -8.9° C leicht bewölkt
Di, 22.01. 0:00 -8.6° C wolkenlos
Mo, 21.01. 23:30 -8.1° C wolkenlos
Mo, 21.01. 23:00 -8.1° C wolkenlos
Ortszeit Relative Feuchte Sichtweite
Di, 22.01. 1:00 88% 5.0 km
Mo, 21.01. 19:00 91% 4.0 km
Mo, 21.01. 13:00 92% 2.0 km
Mo, 21.01. 7:00 87% 11 km
Mo, 21.01. 1:00 90% 8 km
So, 20.01. 19:00 84% 12 km
So, 20.01. 13:00 60% 28 km
So, 20.01. 7:00 90% 20 km
Ortszeit Relative Feuchte Sichtweite
Di, 22.01. 2:10 88% -
Di, 22.01. 2:00 88% 6 km
Di, 22.01. 1:50 88% -
Di, 22.01. 1:40 87% -
Di, 22.01. 1:30 87% 5.0 km
Di, 22.01. 1:20 87% -
Di, 22.01. 1:00 88% 5.0 km
Di, 22.01. 0:30 90% 5.0 km
Di, 22.01. 0:00 89% 5.0 km
Mo, 21.01. 23:30 90% 4.9 km
Mo, 21.01. 23:00 90% 4.6 km
Ortszeit Niederschlagsmenge Niederschlagsart
Di, 22.01. 1:00 0.0 l/m2 in 6 Std. -
Mo, 21.01. 19:00 0.0 l/m2 in 12 Std. -
Mo, 21.01. 13:00 0.0 l/m2 in 6 Std. -
Mo, 21.01. 7:00 0.0 l/m2 in 12 Std. -
Mo, 21.01. 1:00 0.0 l/m2 in 6 Std. -
So, 20.01. 19:00 0.0 l/m2 in 12 Std. -
So, 20.01. 13:00 0.0 l/m2 in 6 Std. -
So, 20.01. 7:00 0.0 l/m2 in 12 Std. -
Ortszeit Niederschlagsmenge Niederschlagsart
Di, 22.01. 2:10 keine Meldung -
Di, 22.01. 2:00 0.0 l/m2 in 1 Std. -
Di, 22.01. 1:50 keine Meldung -
Di, 22.01. 1:40 keine Meldung -
Di, 22.01. 1:30 0.0 l/m2 in 1 Std. -
Di, 22.01. 1:20 keine Meldung -
Di, 22.01. 1:00 0.0 l/m2 in 1 Std. -
Di, 22.01. 0:30 0.0 l/m2 in 1 Std. -
Di, 22.01. 0:00 0.0 l/m2 in 1 Std. -
Mo, 21.01. 23:30 0.0 l/m2 in 1 Std. -
Mo, 21.01. 23:00 0.0 l/m2 in 1 Std. -
Ortszeit Stärke Spitze Richtung
km/h Bft. km/h Grad Sektor
Di, 22.01. 1:00 6 1 9 200° S
Mo, 21.01. 19:00 4 1 7 190° S
Mo, 21.01. 13:00 2 1 9 270° W
Mo, 21.01. 7:00 6 1 7 210° SW
Mo, 21.01. 1:00 7 2 11 190° S
So, 20.01. 19:00 4 1 7 210° SW
So, 20.01. 13:00 4 1 11 190° S
So, 20.01. 7:00 6 1 9 210° SW
Ortszeit Stärke Spitze Richtung
km/h Bft. km/h Grad Sektor
Di, 22.01. 2:10 4 1 - 190° S
Di, 22.01. 2:00 6 1 6 200° S
Di, 22.01. 1:50 6 1 - 200° S
Di, 22.01. 1:40 6 1 - 200° S
Di, 22.01. 1:30 6 1 6 200° S
Di, 22.01. 1:20 6 1 - 200° S
Di, 22.01. 1:00 6 1 7 200° S
Di, 22.01. 0:30 4 1 7 200° S
Di, 22.01. 0:00 4 1 7 210° SW
Mo, 21.01. 23:30 4 1 7 220° SW
Mo, 21.01. 23:00 6 1 7 200° S
Ortszeit Untergrenze Bedeckung Gattung
total tief tief mittel hoch
Di, 22.01. 1:00 60 m 7/8 7/8 - - -
Mo, 21.01. 19:00 - 0/8 0/8 - - -
Mo, 21.01. 13:00 30 m 8/8 8/8 - - -
Mo, 21.01. 7:00 150 m 5/8 5/8 - - -
Mo, 21.01. 1:00 - 0/8 0/8 - - -
So, 20.01. 19:00 - 0/8 0/8 - - -
So, 20.01. 13:00 5700 m 1/8 1/8 - - -
So, 20.01. 7:00 - 0/8 0/8 - - -
Ortszeit Bedeckungsgrad in Achtel und Wolkenuntergrenze
Di, 22.01. 2:10 6(30m)
Di, 22.01. 2:00 1(1140m) 4(1140m)
Di, 22.01. 1:50 1(1140m)
Di, 22.01. 1:40 1(1110m)
Di, 22.01. 1:30 4(60m)
Di, 22.01. 1:20 4(60m)
Di, 22.01. 1:00 7(60m)
Di, 22.01. 0:30 3(90m)
Di, 22.01. 0:00 keine Wolken
Mo, 21.01. 23:30 keine Wolken
Mo, 21.01. 23:00 keine Wolken
Ortszeit Luftdruck NN (hPa) Tendenz (hPa in 3 Std.)
Di, 22.01. 1:00 1020 - 1,2
Mo, 21.01. 19:00 1022 - 0,5
Mo, 21.01. 13:00 1025 - 0,5
Mo, 21.01. 7:00 1024 + 0,4
Mo, 21.01. 1:00 1023 + 1,3
So, 20.01. 19:00 1020 + 1,8
So, 20.01. 13:00 1018 + 0,6
So, 20.01. 7:00 1016 0,0
Ortszeit Luftdruck NN (hPa) Tendenz (hPa in 3 Std.)
Di, 22.01. 2:10 1019 keine Meldung
Di, 22.01. 2:00 1019 - 1,8
Di, 22.01. 1:50 1019 keine Meldung
Di, 22.01. 1:40 1019 keine Meldung
Di, 22.01. 1:30 1019 - 1,5
Di, 22.01. 1:20 1019 keine Meldung
Di, 22.01. 1:00 1020 - 1,2
Di, 22.01. 0:30 1020 - 0,9
Di, 22.01. 0:00 1021 - 0,9
Mo, 21.01. 23:30 1021 - 0,9
Mo, 21.01. 23:00 1021 - 0,9
Ortszeit Schneehöhe (cm)
Di, 22.01. 1:00 0
Mo, 21.01. 19:00 0
Mo, 21.01. 13:00 0
Mo, 21.01. 7:00 0
Mo, 21.01. 1:00 0
So, 20.01. 19:00 0
So, 20.01. 13:00 0
So, 20.01. 7:00 0
Ortszeit Schneehöhe (cm)
Di, 22.01. 2:10 0
Di, 22.01. 2:00 0
Di, 22.01. 1:50 0
Di, 22.01. 1:40 0
Di, 22.01. 1:30 0
Di, 22.01. 1:20 0
Di, 22.01. 1:00 0
Di, 22.01. 0:30 0
Di, 22.01. 0:00 0
Mo, 21.01. 23:30 0
Mo, 21.01. 23:00 0
Link zu dieser Seite / Seite empfehlen

Das Wetter in ...